Time;durP1;ratioP1;P1;durP2;ratioP2;P2;SDS_P1;SDS_P2;PMS_P1;PMS_P2;Temp;Humidity;BMP_temperature;BMP_pressure;BME280_temperature;BME280_humidity;BME280_pressure;Samples;Min_cycle;Max_cycle;Signal;HPM_P1;HPM_P2
2022/03/23 00:01:23;;;;;;;;;63.00;49.75;;;;;16.11;50.64;102497.25;4993290;28;45415;-73
2022/03/23 00:03:49;;;;;;;;;64.75;50.25;;;;;16.08;51.48;102498.88;4993600;28;45782;-76
2022/03/23 00:06:16;;;;;;;;;67.00;52.25;;;;;16.02;50.92;102492.47;4994192;28;45441;-75
2022/03/23 00:08:42;;;;;;;;;62.25;48.25;;;;;16.04;51.60;102510.00;4993746;28;45506;-72
2022/03/23 00:11:08;;;;;;;;;71.25;54.00;;;;;15.99;51.37;102503.66;4992975;28;46146;-72
2022/03/23 00:13:34;;;;;;;;;63.25;48.75;;;;;15.97;51.63;102502.69;4993372;28;45345;-73
2022/03/23 00:16:00;;;;;;;;;61.00;46.00;;;;;15.94;51.71;102516.50;4993265;28;45437;-71
2022/03/23 00:18:26;;;;;;;;;63.50;50.50;;;;;15.92;52.19;102512.91;4994034;28;45532;-73
2022/03/23 00:20:52;;;;;;;;;62.00;47.50;;;;;15.89;51.87;102506.63;5000598;28;46084;-74
2022/03/23 00:23:17;;;;;;;;;65.00;50.00;;;;;15.83;52.17;102501.97;5014213;28;45447;-72
2022/03/23 00:25:43;;;;;;;;;54.50;39.50;;;;;15.83;52.46;102514.13;4996396;27;45364;-72
2022/03/23 00:28:09;;;;;;;;;67.00;49.75;;;;;15.82;52.33;102518.44;5012228;28;45317;-77
2022/03/23 00:30:35;;;;;;;;;63.50;48.75;;;;;15.76;52.72;102512.94;5012784;27;45452;-79
2022/03/23 00:33:05;;;;;;;;;66.50;51.50;;;;;15.75;52.68;102512.03;5010646;27;45586;-74
2022/03/23 00:35:31;;;;;;;;;63.25;49.75;;;;;15.70;52.84;102515.22;5012598;28;45269;-72
2022/03/23 00:37:58;;;;;;;;;64.25;51.25;;;;;15.73;52.92;102511.03;5013481;28;45568;-77
2022/03/23 00:40:25;;;;;;;;;59.00;46.50;;;;;15.68;52.94;102515.16;5016129;28;45951;-71
2022/03/23 00:42:51;;;;;;;;;67.50;50.50;;;;;15.66;53.23;102511.56;5015708;28;45283;-70
2022/03/23 00:45:17;;;;;;;;;61.25;48.00;;;;;15.63;53.20;102511.38;5015470;27;45334;-70
2022/03/23 00:47:44;;;;;;;;;64.00;50.75;;;;;15.60;53.49;102509.53;5014000;27;45652;-71
2022/03/23 00:50:09;;;;;;;;;62.50;49.25;;;;;15.59;53.22;102517.28;5015167;27;45346;-71
2022/03/23 00:52:37;;;;;;;;;66.25;49.50;;;;;15.51;53.74;102510.75;5015504;28;45251;-71
2022/03/23 00:55:04;;;;;;;;;65.00;49.75;;;;;15.50;53.54;102515.09;5015491;27;45429;-71
2022/03/23 00:57:29;;;;;;;;;62.00;48.25;;;;;15.45;54.03;102512.25;5012969;27;45283;-71
2022/03/23 00:59:55;;;;;;;;;63.75;50.50;;;;;15.48;54.21;102517.63;4996065;27;45674;-71
2022/03/23 01:02:21;;;;;;;;;65.25;50.00;;;;;15.46;53.99;102514.03;4995477;28;45327;-71
2022/03/23 01:04:47;;;;;;;;;66.00;50.25;;;;;15.42;54.41;102506.84;4995791;27;45258;-71
2022/03/23 01:07:12;;;;;;;;;65.75;51.50;;;;;15.44;54.64;102510.44;4996068;28;45628;-73
2022/03/23 01:09:38;;;;;;;;;64.75;50.50;;;;;15.38;54.33;102514.44;4977998;28;45544;-72
2022/03/23 01:12:04;;;;;;;;;63.25;49.00;;;;;15.37;54.66;102512.66;4996381;28;45472;-71
2022/03/23 01:14:29;;;;;;;;;62.25;49.00;;;;;15.31;54.87;102521.06;4995544;28;45351;-71
2022/03/23 01:16:56;;;;;;;;;66.00;50.50;;;;;15.26;55.36;102510.38;4995996;28;45656;-70
2022/03/23 01:19:28;;;;;;;;;65.75;48.50;;;;;15.22;55.40;102517.97;4977511;28;47112;-71
2022/03/23 01:21:54;;;;;;;;;64.50;51.50;;;;;15.20;54.67;102511.75;4995707;28;45373;-71
2022/03/23 01:24:21;;;;;;;;;64.75;49.00;;;;;15.12;55.11;102508.72;4977474;28;45422;-72
2022/03/23 01:26:47;;;;;;;;;63.50;50.00;;;;;15.01;56.10;102496.00;4995567;28;45458;-70
2022/03/23 01:29:13;;;;;;;;;62.50;48.00;;;;;15.06;56.18;102506.72;4995063;28;45360;-71
2022/03/23 01:31:39;;;;;;;;;66.25;51.50;;;;;15.08;56.43;102505.06;4995255;28;46053;-71
2022/03/23 01:34:04;;;;;;;;;63.25;50.00;;;;;15.02;55.87;102507.34;4995159;28;45346;-71
2022/03/23 01:36:31;;;;;;;;;60.50;48.00;;;;;15.01;56.21;102502.94;4995522;28;45276;-70
2022/03/23 01:38:58;;;;;;;;;63.50;50.50;;;;;14.94;56.48;102503.44;4995400;28;46315;-70
2022/03/23 01:41:25;;;;;;;;;66.75;51.00;;;;;14.98;56.53;102505.38;4995383;28;45320;-70
2022/03/23 01:43:51;;;;;;;;;62.50;48.25;;;;;14.97;56.73;102508.81;4995252;28;45372;-72
2022/03/23 01:46:19;;;;;;;;;61.00;48.00;;;;;14.97;55.78;102501.91;4995265;28;45403;-71
2022/03/23 01:48:46;;;;;;;;;64.75;50.50;;;;;14.97;56.14;102501.91;5000353;28;46078;-71
2022/03/23 01:51:12;;;;;;;;;62.25;46.25;;;;;14.95;56.30;102506.13;4994915;28;45235;-72
2022/03/23 01:53:38;;;;;;;;;67.25;50.00;;;;;14.88;56.56;102500.50;4995370;28;45262;-71
2022/03/23 01:56:04;;;;;;;;;59.50;46.25;;;;;14.87;56.73;102499.59;4995119;28;45363;-70
2022/03/23 01:58:30;;;;;;;;;61.75;48.25;;;;;14.76;55.98;102485.97;4999816;28;46232;-71
2022/03/23 02:00:56;;;;;;;;;63.25;50.00;;;;;14.78;56.55;102505.22;5014932;27;45443;-71
2022/03/23 02:03:21;;;;;;;;;60.75;46.75;;;;;14.65;56.59;102498.41;5014089;27;45541;-72
2022/03/23 02:05:47;;;;;;;;;63.25;48.75;;;;;14.63;57.41;102494.81;5015076;28;45591;-71
2022/03/23 02:08:13;;;;;;;;;66.25;49.75;;;;;14.59;57.47;102500.66;5014522;27;45892;-71
2022/03/23 02:10:41;;;;;;;;;59.75;47.25;;;;;14.56;57.47;102497.91;5008441;27;45791;-71
2022/03/23 02:13:09;;;;;;;;;62.25;46.00;;;;;14.55;58.02;102496.09;4994694;28;45266;-71
2022/03/23 02:15:35;;;;;;;;;63.50;46.50;;;;;14.50;57.66;102498.44;4994989;28;45245;-71
2022/03/23 02:18:01;;;;;;;;;62.00;49.50;;;;;14.49;57.61;102495.72;4994423;28;45446;-71
2022/03/23 02:20:26;;;;;;;;;61.00;48.50;;;;;14.42;58.01;102491.00;4994823;28;45280;-71
2022/03/23 02:22:52;;;;;;;;;62.00;46.25;;;;;14.38;57.74;102502.97;4994730;28;45425;-71
2022/03/23 02:25:23;;;;;;;;;61.25;46.25;;;;;14.35;58.13;102502.78;5004907;28;45547;-72
2022/03/23 02:27:50;;;;;;;;;63.25;49.00;;;;;14.33;58.28;102507.00;5014263;28;45581;-72
2022/03/23 02:30:16;;;;;;;;;62.25;47.00;;;;;14.31;58.08;102500.81;5014029;27;45319;-72
2022/03/23 02:32:42;;;;;;;;;62.25;48.00;;;;;14.23;58.58;102498.66;5014545;28;45339;-71
2022/03/23 02:35:10;;;;;;;;;60.50;48.00;;;;;14.23;58.31;102508.22;5015461;28;45379;-71
2022/03/23 02:37:36;;;;;;;;;62.75;49.00;;;;;14.18;58.41;102500.13;5014116;27;45991;-71
2022/03/23 02:40:03;;;;;;;;;61.50;47.50;;;;;14.12;58.51;102502.38;5012209;28;45452;-72
2022/03/23 02:42:28;;;;;;;;;64.75;49.00;;;;;14.07;59.01;102506.44;4994679;28;45468;-71
2022/03/23 02:44:54;;;;;;;;;62.75;48.00;;;;;13.99;59.01;102499.84;4994881;28;45377;-71
2022/03/23 02:47:20;;;;;;;;;64.00;47.50;;;;;13.87;59.21;102508.78;4993963;27;45996;-71
2022/03/23 02:49:45;;;;;;;;;65.50;48.00;;;;;13.85;59.04;102505.19;4994274;28;45446;-72
2022/03/23 02:52:11;;;;;;;;;58.75;46.50;;;;;13.80;59.08;102521.34;4994110;28;45347;-73
2022/03/23 03:03:15;;;;;;;;;56.50;45.25;;;;;13.61;57.90;102520.22;4970480;28;45330;-74
2022/03/23 03:05:41;;;;;;;;;58.25;46.00;;;;;13.64;58.15;102522.13;4994299;27;45708;-71
2022/03/23 03:10:50;;;;;;;;;56.25;44.00;;;;;13.67;56.41;102520.59;4993909;28;45759;-73
2022/03/23 03:13:16;;;;;;;;;47.75;38.75;;;;;13.75;54.60;102523.66;4993904;28;45311;-72
2022/03/23 03:15:41;;;;;;;;;40.00;32.25;;;;;13.81;51.02;102524.03;4994401;28;45323;-72
2022/03/23 03:18:07;;;;;;;;;41.75;34.50;;;;;13.86;49.93;102526.88;4994288;28;46350;-72
2022/03/23 03:20:33;;;;;;;;;38.25;33.00;;;;;13.90;49.08;102526.28;4994199;28;45288;-72
2022/03/23 03:22:58;;;;;;;;;43.75;34.75;;;;;13.89;47.40;102530.56;4994579;28;45318;-73
2022/03/23 03:25:24;;;;;;;;;38.00;33.25;;;;;13.91;46.53;102528.06;4994534;28;45588;-72
2022/03/23 03:27:50;;;;;;;;;36.50;31.00;;;;;13.96;45.32;102528.34;5007251;27;45349;-72
2022/03/23 03:30:17;;;;;;;;;38.50;32.75;;;;;13.90;45.46;102529.75;5012969;28;45248;-74
2022/03/23 03:32:44;;;;;;;;;33.50;31.00;;;;;13.93;45.17;102532.56;5013766;27;45381;-76
2022/03/23 03:35:10;;;;;;;;;32.75;30.25;;;;;13.92;45.42;102545.50;4995229;28;45427;-71
2022/03/23 03:37:37;;;;;;;;;36.25;30.25;;;;;13.90;44.66;102544.50;5013786;28;46667;-71
2022/03/23 03:40:04;;;;;;;;;32.75;30.75;;;;;13.83;44.05;102540.63;5014367;28;45235;-71
2022/03/23 03:42:30;;;;;;;;;32.50;28.50;;;;;13.78;43.76;102539.44;5012749;27;45314;-72
2022/03/23 03:44:57;;;;;;;;;29.00;27.75;;;;;13.74;43.61;102543.59;5004894;28;45406;-71
2022/03/23 03:47:24;;;;;;;;;30.75;26.25;;;;;13.73;43.02;102548.72;4993389;28;45342;-74
2022/03/23 03:49:50;;;;;;;;;33.25;30.00;;;;;13.68;42.92;102551.03;4993846;28;45342;-72
2022/03/23 03:52:16;;;;;;;;;35.00;25.50;;;;;13.62;43.41;102554.16;4993722;28;45376;-71
2022/03/23 03:54:42;;;;;;;;;27.25;25.50;;;;;13.58;43.40;102557.38;4994145;28;45521;-71
2022/03/23 03:57:08;;;;;;;;;29.00;26.00;;;;;13.51;43.39;102556.91;4980286;28;45674;-71
2022/03/23 03:59:34;;;;;;;;;28.50;25.50;;;;;13.44;43.02;102550.47;5003006;28;45405;-71
2022/03/23 04:02:00;;;;;;;;;32.25;27.50;;;;;13.44;43.26;102547.84;5003965;28;45428;-71
2022/03/23 04:04:26;;;;;;;;;29.00;25.25;;;;;13.41;43.46;102548.53;5002095;28;45533;-71
2022/03/23 04:06:52;;;;;;;;;29.25;26.00;;;;;13.46;43.00;102561.81;4993175;28;46074;-71
2022/03/23 04:09:17;;;;;;;;;31.75;29.25;;;;;13.43;42.75;102553.88;4993104;28;45469;-71
2022/03/23 04:11:43;;;;;;;;;30.75;26.50;;;;;13.39;42.97;102562.22;4993634;28;45383;-71
2022/03/23 04:14:08;;;;;;;;;28.50;24.25;;;;;13.32;43.04;102558.34;4993249;28;45303;-75
2022/03/23 04:16:34;;;;;;;;;35.00;29.75;;;;;13.32;42.86;102558.34;4988983;28;48107;-71
2022/03/23 04:19:00;;;;;;;;;27.25;26.25;;;;;13.27;42.82;102562.38;5012637;28;45369;-71
2022/03/23 04:21:26;;;;;;;;;35.25;30.75;;;;;13.29;42.98;102571.16;5013462;28;45291;-71
2022/03/23 04:23:51;;;;;;;;;33.00;27.25;;;;;13.23;43.19;102566.47;5013240;28;45247;-71
2022/03/23 04:26:17;;;;;;;;;28.50;25.75;;;;;13.27;43.47;102570.19;5012308;28;45396;-71
2022/03/23 04:28:42;;;;;;;;;29.50;22.25;;;;;13.21;43.30;102573.31;5012852;28;45250;-72
2022/03/23 04:31:08;;;;;;;;;30.00;24.75;;;;;13.25;43.06;102580.47;5004826;28;45219;-71
2022/03/23 04:33:33;;;;;;;;;30.25;25.25;;;;;13.20;43.41;102576.72;4993510;27;45568;-72
2022/03/23 04:35:59;;;;;;;;;27.75;25.25;;;;;13.23;43.49;102591.59;4992647;28;45375;-71
2022/03/23 04:38:26;;;;;;;;;30.25;27.00;;;;;13.20;43.76;102589.72;4993176;28;45367;-70
2022/03/23 04:40:52;;;;;;;;;31.75;29.00;;;;;13.22;43.74;102590.72;4993140;28;45391;-74
2022/03/23 04:43:18;;;;;;;;;30.00;26.25;;;;;13.24;43.53;102583.88;4993177;28;45268;-71
2022/03/23 04:45:44;;;;;;;;;29.00;25.75;;;;;13.30;43.23;102593.78;4992618;28;45451;-71
2022/03/23 04:48:10;;;;;;;;;29.25;24.75;;;;;13.30;43.27;102597.28;4994068;28;45228;-71
2022/03/23 04:50:35;;;;;;;;;25.50;22.75;;;;;13.28;43.48;102593.69;4994670;28;45342;-71
2022/03/23 04:53:01;;;;;;;;;30.75;24.25;;;;;13.23;43.51;102594.19;5012458;28;45574;-71
2022/03/23 04:55:26;;;;;;;;;29.00;27.00;;;;;13.22;43.43;102598.53;5012639;28;45980;-71
2022/03/23 04:57:52;;;;;;;;;25.50;22.50;;;;;13.26;43.63;102605.69;5011987;27;45482;-71
2022/03/23 05:00:20;;;;;;;;;29.00;23.25;;;;;13.26;43.24;102605.69;5012242;28;45538;-71
2022/03/23 05:02:48;;;;;;;;;29.50;24.50;;;;;13.28;43.46;102598.88;5012652;28;45484;-70
2022/03/23 05:05:15;;;;;;;;;31.75;26.25;;;;;13.33;43.61;102599.19;5010961;28;45791;-71
2022/03/23 05:07:42;;;;;;;;;31.75;27.50;;;;;13.38;43.34;102602.06;4992656;28;45905;-71
2022/03/23 05:10:08;;;;;;;;;30.00;25.50;;;;;13.39;43.88;102599.56;4992429;28;45307;-70
2022/03/23 05:12:39;;;;;;;;;29.00;26.50;;;;;13.43;43.40;102600.69;4992765;28;45810;-72
2022/03/23 05:15:06;;;;;;;;;25.75;24.25;;;;;13.41;43.61;102599.69;4992112;28;45457;-72
2022/03/23 05:17:33;;;;;;;;;29.00;25.50;;;;;13.45;43.36;102604.25;4992436;28;45780;-71
2022/03/23 05:19:58;;;;;;;;;27.25;24.00;;;;;13.44;43.44;102602.50;4992618;28;45343;-71
2022/03/23 05:22:24;;;;;;;;;25.50;25.25;;;;;13.42;43.70;102598.91;5009686;28;45571;-72
2022/03/23 05:24:50;;;;;;;;;32.50;24.75;;;;;13.45;43.54;102604.25;4996518;28;45918;-71
2022/03/23 05:27:15;;;;;;;;;28.25;26.50;;;;;13.47;43.48;102613.06;4995314;27;45319;-75
2022/03/23 05:29:43;;;;;;;;;29.75;25.75;;;;;13.43;43.75;102596.38;5002232;28;45484;-71
2022/03/23 05:32:16;;;;;;;;;26.75;26.75;;;;;13.47;43.86;102602.66;5004705;27;45931;-73
2022/03/23 05:34:43;;;;;;;;;28.25;25.50;;;;;13.47;44.24;102610.47;5014968;28;45506;-71
2022/03/23 05:37:09;;;;;;;;;29.00;25.25;;;;;13.48;44.56;102614.00;5014393;27;45885;-71
2022/03/23 05:39:35;;;;;;;;;33.50;30.00;;;;;13.44;44.74;102613.78;5015147;27;45469;-75
2022/03/23 05:42:00;;;;;;;;;27.25;25.50;;;;;13.49;45.04;102621.00;5015123;28;45525;-71
2022/03/23 05:44:26;;;;;;;;;27.50;26.50;;;;;13.41;45.23;102603.19;5015115;27;45524;-73
2022/03/23 05:46:51;;;;;;;;;28.00;26.00;;;;;13.40;45.16;102603.97;5015143;28;45450;-73
2022/03/23 05:49:17;;;;;;;;;25.25;22.00;;;;;13.40;45.32;102606.59;5016129;28;45414;-73
2022/03/23 05:51:43;;;;;;;;;31.75;27.75;;;;;13.41;45.60;102618.78;5017709;28;45339;-72
2022/03/23 05:54:08;;;;;;;;;28.50;25.50;;;;;13.39;45.40;102617.78;5014989;28;45908;-75
2022/03/23 05:56:34;;;;;;;;;27.50;27.00;;;;;13.40;45.77;102616.09;5010727;28;45512;-79
2022/03/23 05:59:00;;;;;;;;;32.25;30.00;;;;;13.27;46.08;102597.09;4994637;27;45426;-76
2022/03/23 06:01:26;;;;;;;;;28.00;26.25;;;;;13.38;45.94;102620.28;4995009;28;45340;-80
2022/03/23 06:03:51;;;;;;;;;26.00;24.50;;;;;13.23;45.36;102592.50;4993909;28;46115;-72
2022/03/23 06:06:18;;;;;;;;;27.50;25.25;;;;;13.35;45.42;102615.78;4994335;28;45531;-72
2022/03/23 06:08:44;;;;;;;;;29.50;27.25;;;;;13.36;45.77;102616.66;4994813;28;45348;-72
2022/03/23 06:11:10;;;;;;;;;30.75;26.00;;;;;13.35;46.18;102622.66;4994030;28;45981;-73
2022/03/23 06:13:36;;;;;;;;;34.50;26.75;;;;;13.28;45.84;102605.81;4994147;27;46099;-73
2022/03/23 06:16:02;;;;;;;;;29.50;22.50;;;;;13.29;45.76;102613.69;4993849;28;45404;-75
2022/03/23 06:18:28;;;;;;;;;34.50;27.50;;;;;13.36;45.83;102620.19;4995223;28;45326;-74
2022/03/23 06:20:53;;;;;;;;;36.25;31.50;;;;;13.36;46.25;102617.59;4995022;28;45245;-74
2022/03/23 06:23:19;;;;;;;;;46.00;36.00;;;;;13.34;47.46;102620.88;4997835;27;46043;-78
2022/03/23 06:25:44;;;;;;;;;48.00;39.00;;;;;13.20;48.26;102607.91;4995326;28;45479;-83
2022/03/23 06:28:10;;;;;;;;;48.50;38.25;;;;;13.20;48.75;102628.72;4994893;28;45342;-80
2022/03/23 06:30:36;;;;;;;;;50.25;39.50;;;;;13.14;49.40;102630.91;4995318;28;45376;-86
2022/03/23 06:33:01;;;;;;;;;48.25;37.00;;;;;13.04;50.19;102624.25;4994546;28;46291;-79
2022/03/23 06:35:29;;;;;;;;;50.25;41.25;;;;;12.93;50.94;102607.06;4993490;27;45343;-84
2022/03/23 06:37:54;;;;;;;;;54.00;39.00;;;;;13.13;50.71;102631.72;4994583;27;45323;-85
2022/03/23 06:40:21;;;;;;;;;53.75;40.00;;;;;13.04;50.85;102610.34;4978299;28;45644;-83
2022/03/23 06:42:47;;;;;;;;;56.25;43.50;;;;;13.24;51.29;102648.91;4994849;27;45777;-80
2022/03/23 06:45:12;;;;;;;;;51.50;40.75;;;;;13.16;51.40;102624.13;4995227;28;45950;-80
2022/03/23 06:47:38;;;;;;;;;57.75;43.75;;;;;13.25;51.54;102650.72;5001670;27;45221;-80
2022/03/23 06:50:05;;;;;;;;;48.50;39.75;;;;;13.32;51.62;102660.72;5000196;28;45248;-84
2022/03/23 06:52:31;;;;;;;;;47.00;38.50;;;;;13.33;51.04;102661.59;4998540;27;45527;-79
2022/03/23 06:54:56;;;;;;;;;41.00;36.75;;;;;13.25;50.67;102650.72;4997572;27;45785;-79
2022/03/23 06:57:22;;;;;;;;;44.25;36.50;;;;;13.31;50.01;102660.59;4994356;28;45506;-80
2022/03/23 06:59:47;;;;;;;;;44.00;34.25;;;;;13.37;49.64;102663.63;4994373;28;45441;-75
2022/03/23 07:02:13;;;;;;;;;42.50;34.25;;;;;13.36;49.56;102668.69;4993437;28;46413;-77
2022/03/23 07:04:40;;;;;;;;;44.75;37.00;;;;;13.39;49.71;102672.44;5000716;28;45478;-76
2022/03/23 07:07:05;;;;;;;;;42.75;35.50;;;;;13.36;49.40;102669.63;5042161;27;45291;-75
2022/03/23 07:09:31;;;;;;;;;46.75;36.00;;;;;13.35;49.48;102660.00;5063882;27;45426;-79
2022/03/23 07:12:03;;;;;;;;;48.75;37.00;;;;;13.44;49.61;102675.34;4999623;27;45338;-74
2022/03/23 07:14:30;;;;;;;;;43.50;36.50;;;;;13.45;49.60;102677.13;4993921;28;45887;-75
2022/03/23 07:16:57;;;;;;;;;47.75;37.25;;;;;13.51;49.72;102680.13;4997861;28;45438;-74
2022/03/23 07:19:22;;;;;;;;;47.25;38.75;;;;;13.55;49.56;102684.69;4993353;28;45334;-77
2022/03/23 07:21:49;;;;;;;;;45.50;35.25;;;;;13.54;49.47;102684.63;4996373;28;45468;-80
2022/03/23 07:24:15;;;;;;;;;43.00;36.00;;;;;13.51;49.87;102666.19;5014736;27;45512;-77
2022/03/23 07:26:40;;;;;;;;;47.75;40.00;;;;;13.63;50.24;102693.00;5007710;28;45587;-79
2022/03/23 07:29:06;;;;;;;;;46.00;37.25;;;;;13.61;50.36;102685.09;5006654;28;45342;-79
2022/03/23 07:31:33;;;;;;;;;52.75;40.50;;;;;13.65;50.09;102683.59;5001268;27;46398;-76
2022/03/23 07:33:58;;;;;;;;;56.00;42.00;;;;;13.63;50.55;102685.19;4997276;28;46120;-77
2022/03/23 07:36:26;;;;;;;;;51.25;42.00;;;;;13.67;50.19;102689.78;4979830;28;45543;-78
2022/03/23 07:38:52;;;;;;;;;47.75;39.25;;;;;13.70;50.47;102691.69;4990221;28;45722;-76
2022/03/23 07:41:18;;;;;;;;;47.00;39.75;;;;;13.74;50.48;102691.06;5014039;27;45490;-75
2022/03/23 07:43:44;;;;;;;;;49.00;40.50;;;;;13.83;50.43;102698.53;4980045;28;45312;-74
2022/03/23 07:46:09;;;;;;;;;50.00;39.25;;;;;13.73;50.48;102671.94;4985372;28;45556;-74
2022/03/23 07:48:35;;;;;;;;;51.00;42.00;;;;;13.93;50.40;102699.22;5004436;28;45324;-75
2022/03/23 07:51:01;;;;;;;;;51.25;41.25;;;;;13.96;50.13;102693.28;4993405;27;45325;-73
2022/03/23 07:53:27;;;;;;;;;52.50;41.50;;;;;14.01;50.36;102699.69;4993549;27;45422;-81
2022/03/23 07:55:52;;;;;;;;;48.00;39.00;;;;;14.08;50.39;102699.25;5011462;28;45307;-76
2022/03/23 07:58:18;;;;;;;;;47.50;37.50;;;;;14.11;49.77;102684.63;5017386;28;45421;-77
2022/03/23 08:00:45;;;;;;;;;50.00;41.50;;;;;14.15;50.19;102699.59;5003814;28;45884;-75
2022/03/23 08:03:11;;;;;;;;;50.50;40.75;;;;;14.16;49.69;102702.31;5006000;27;45461;-76
2022/03/23 08:05:38;;;;;;;;;48.50;39.00;;;;;14.12;49.48;102687.31;5010073;27;45369;-77
2022/03/23 08:08:05;;;;;;;;;50.00;39.75;;;;;14.23;49.80;102699.28;4995906;27;45447;-78
2022/03/23 08:10:31;;;;;;;;;54.50;40.50;;;;;14.26;49.38;102703.75;4984620;28;46145;-75
2022/03/23 08:12:56;;;;;;;;;49.50;38.25;;;;;14.25;47.62;102694.16;4992510;28;45332;-73
2022/03/23 08:15:24;;;;;;;;;47.00;38.25;;;;;14.31;46.87;102714.44;4983777;28;45350;-74
2022/03/23 08:17:50;;;;;;;;;42.00;33.75;;;;;14.34;45.69;102712.97;4995818;27;45464;-72
2022/03/23 08:20:35;;;;;;;;;36.75;32.25;;;;;14.36;45.22;102713.03;5012668;27;46076;-71
2022/03/23 08:23:06;;;;;;;;;37.25;32.25;;;;;14.38;45.06;102714.03;5000723;27;46024;-73
2022/03/23 08:25:33;;;;;;;;;44.50;34.25;;;;;14.40;44.72;102709.81;4993435;28;45323;-77
2022/03/23 08:28:00;;;;;;;;;38.00;34.00;;;;;14.46;44.07;102710.19;5052690;27;45817;-72
2022/03/23 08:30:26;;;;;;;;;36.75;32.25;;;;;14.55;44.01;102722.84;5096814;27;46609;-74
2022/03/23 08:32:53;;;;;;;;;37.25;32.00;;;;;14.63;43.29;102725.94;5065018;27;45915;-73
2022/03/23 08:35:19;;;;;;;;;38.50;33.00;;;;;14.64;43.20;102710.38;4993175;28;45498;-72
2022/03/23 08:37:45;;;;;;;;;42.00;35.25;;;;;14.69;42.16;102721.09;4996720;27;45524;-76
2022/03/23 08:40:11;;;;;;;;;31.75;30.25;;;;;14.69;41.93;102721.97;4995455;27;46590;-90
2022/03/23 08:42:37;;;;;;;;;33.00;30.00;;;;;14.71;42.01;102722.09;4994311;28;45398;-76
2022/03/23 08:45:05;;;;;;;;;34.75;31.75;;;;;14.74;41.78;102724.84;4992649;28;45422;-74
2022/03/23 08:47:31;;;;;;;;;39.50;32.00;;;;;14.77;41.66;102718.94;4992280;27;45484;-76
2022/03/23 08:49:57;;;;;;;;;37.75;32.00;;;;;14.75;41.44;102710.13;4993135;28;45283;-74
2022/03/23 08:52:28;;;;;;;;;29.00;28.00;;;;;14.85;41.71;102723.78;4996294;27;45431;-75
2022/03/23 08:54:53;;;;;;;;;33.75;32.00;;;;;14.91;41.65;102724.94;4994551;27;45556;-78
2022/03/23 08:57:19;;;;;;;;;38.75;27.50;;;;;14.97;40.82;102723.59;4992614;27;45846;-81
2022/03/23 08:59:45;;;;;;;;;37.00;31.75;;;;;15.04;40.26;102721.31;4994892;28;46512;-79
2022/03/23 09:02:10;;;;;;;;;32.00;29.75;;;;;15.03;40.80;102715.22;4995009;27;45420;-76
2022/03/23 09:04:36;;;;;;;;;31.75;28.50;;;;;15.13;39.86;102721.84;4996034;27;45411;-77
2022/03/23 09:07:02;;;;;;;;;34.50;31.00;;;;;15.20;39.99;102721.41;5011140;27;45575;-77
2022/03/23 09:09:27;;;;;;;;;33.75;32.00;;;;;15.18;39.43;102709.97;5100079;27;45400;-72
2022/03/23 09:11:53;;;;;;;;;29.50;27.50;;;;;15.22;38.72;102714.56;5080987;27;45428;-76
2022/03/23 09:14:19;;;;;;;;;27.25;24.25;;;;;15.21;37.42;102712.78;5099906;27;45241;-75
2022/03/23 09:16:45;;;;;;;;;30.00;24.75;;;;;15.20;37.12;102715.28;5081517;27;45402;-72
2022/03/23 09:19:11;;;;;;;;;32.00;27.25;;;;;15.19;36.71;102716.06;5099222;27;46278;-74
2022/03/23 09:21:38;;;;;;;;;30.50;26.75;;;;;15.19;37.31;102723.91;5099951;27;45305;-74
2022/03/23 09:24:05;;;;;;;;;31.75;26.25;;;;;15.19;37.62;102713.47;5080867;27;45351;-74
2022/03/23 09:26:31;;;;;;;;;26.50;25.75;;;;;15.21;37.50;102717.06;5099447;27;45558;-74
2022/03/23 09:28:57;;;;;;;;;27.25;23.25;;;;;15.26;36.92;102718.25;5099475;27;45418;-74
2022/03/23 09:31:23;;;;;;;;;29.75;28.75;;;;;15.30;37.22;102717.59;5098755;27;45284;-74
2022/03/23 09:33:49;;;;;;;;;28.25;24.25;;;;;15.36;36.38;102719.63;5099378;27;45267;-73
2022/03/23 09:37:47;;;;;;;;;26.25;23.25;;;;;15.35;36.01;102712.63;5099275;27;45447;-74
2022/03/23 09:39:06;;;;;;;;;25.00;24.50;;;;;15.33;36.60;102708.22;5098248;27;45987;-79
2022/03/23 09:41:34;;;;;;;;;32.50;27.75;;;;;15.40;36.04;102709.44;5099566;27;45223;-73
2022/03/23 09:44:01;;;;;;;;;24.33;24.00;;;;;15.50;35.83;102721.31;5099507;27;45424;-74
2022/03/23 09:46:27;;;;;;;;;30.00;23.00;;;;;15.53;35.97;102717.97;5100155;27;45539;-74
2022/03/23 09:48:52;;;;;;;;;25.75;23.00;;;;;15.53;35.97;102713.66;5080360;27;47657;-74
2022/03/23 09:51:20;;;;;;;;;26.50;23.25;;;;;15.59;36.44;102719.22;5098526;27;45371;-74
2022/03/23 09:53:46;;;;;;;;;24.75;23.00;;;;;15.65;36.02;102722.97;5098839;27;45553;-74
2022/03/23 09:56:13;;;;;;;;;23.00;21.50;;;;;15.70;35.98;102726.72;5098968;27;45493;-74
2022/03/23 09:58:41;;;;;;;;;32.25;28.00;;;;;15.72;35.40;102712.03;5098732;27;45302;-76
2022/03/23 10:01:30;;;;;;;;;27.75;26.00;;;;;15.74;35.23;102715.66;5098196;27;45352;-74
2022/03/23 10:04:07;;;;;;;;;25.00;24.00;;;;;15.76;35.61;102717.50;5080665;27;45497;-75
2022/03/23 10:06:57;;;;;;;;;30.00;28.25;;;;;15.81;35.70;102717.75;5099003;27;45330;-75
2022/03/23 10:09:25;;;;;;;;;22.00;22.00;;;;;15.86;36.35;102718.97;5098405;27;46541;-77
2022/03/23 10:12:22;;;;;;;;;22.00;22.00;;;;;15.91;35.64;102713.97;5100333;27;45357;-74
2022/03/23 10:15:18;;;;;;;;;30.50;24.75;;;;;15.97;36.00;102716.03;5101630;27;45389;-75
2022/03/23 10:18:21;;;;;;;;;27.75;24.50;;;;;16.00;35.48;102713.53;5099669;27;45242;-76
2022/03/23 10:20:47;;;;;;;;;25.50;23.75;;;;;16.02;35.97;102712.84;5098269;27;45419;-75
2022/03/23 10:23:13;;;;;;;;;24.50;24.50;;;;;16.06;35.50;102703.44;5098486;27;45872;-74
2022/03/23 10:25:40;;;;;;;;;24.25;22.50;;;;;16.11;36.14;102711.53;5098549;27;45319;-75
2022/03/23 10:28:13;;;;;;;;;24.75;23.25;;;;;16.14;35.40;102707.34;5098424;27;45310;-75
2022/03/23 10:30:39;;;;;;;;;26.00;24.75;;;;;16.16;35.16;102708.34;5098306;27;45251;-75
2022/03/23 10:33:20;;;;;;;;;25.00;22.25;;;;;16.23;35.63;102705.22;5097947;27;45910;-74
2022/03/23 10:35:46;;;;;;;;;25.50;22.00;;;;;16.27;35.19;102702.75;5098449;27;45436;-75
2022/03/23 10:38:14;;;;;;;;;23.50;22.25;;;;;16.32;34.70;102702.19;5098219;27;45446;-74
2022/03/23 10:40:41;;;;;;;;;21.50;18.75;;;;;16.20;35.26;102668.44;5097980;27;45462;-74
2022/03/23 10:43:08;;;;;;;;;24.50;22.50;;;;;16.39;35.11;102698.16;5097746;27;45336;-74
2022/03/23 10:45:33;;;;;;;;;21.75;20.75;;;;;16.44;35.14;102693.16;5097918;27;45429;-74
2022/03/23 10:48:11;;;;;;;;;20.50;18.75;;;;;16.47;34.67;102693.31;5097982;27;45647;-74
2022/03/23 10:50:37;;;;;;;;;24.25;21.75;;;;;16.49;34.34;102694.28;5097758;27;45391;-72
2022/03/23 10:53:05;;;;;;;;;24.00;21.00;;;;;16.54;34.86;102687.59;5097524;27;45292;-84
2022/03/23 10:55:46;;;;;;;;;29.00;26.25;;;;;16.56;34.26;102686.84;5097901;27;45456;-73
2022/03/23 10:58:22;;;;;;;;;27.00;22.75;;;;;16.50;34.19;102663.00;5097889;27;45405;-74
2022/03/23 11:00:52;;;;;;;;;22.75;20.25;;;;;16.65;33.93;102682.88;5098101;27;46154;-82
2022/03/23 11:03:18;;;;;;;;;22.50;21.00;;;;;16.67;34.69;102682.16;5098484;27;45382;-74
2022/03/23 11:05:47;;;;;;;;;24.00;21.25;;;;;16.69;34.57;102675.25;5097859;27;45792;-74
2022/03/23 11:08:19;;;;;;;;;26.75;23.75;;;;;16.75;34.26;102674.66;5096291;27;45325;-73
2022/03/23 11:16:36;;;;;;;;;22.25;18.75;;;;;16.87;33.14;102677.00;5097158;27;45386;-73
2022/03/23 11:19:11;;;;;;;;;21.50;20.75;;;;;16.90;33.05;102679.75;5097163;27;45443;-73
2022/03/23 11:22:05;;;;;;;;;27.00;23.50;;;;;16.96;32.87;102669.63;5096698;27;45579;-73
2022/03/23 11:24:38;;;;;;;;;25.75;21.50;;;;;16.99;32.94;102664.56;5097074;27;45334;-75
2022/03/23 11:27:06;;;;;;;;;26.75;24.00;;;;;17.05;32.30;102665.66;5098208;27;45385;-73